sensor_id;sensor_type;location;lat;lon;timestamp;P1;durP1;ratioP1;P2;durP2;ratioP2
43835;SDS011;39345;43.964;25.340;2023-10-31T00:00:16;26.33;;;12.82;;
43835;SDS011;39345;43.964;25.340;2023-10-31T00:02:44;26.17;;;12.52;;
43835;SDS011;39345;43.964;25.340;2023-10-31T00:05:11;31.13;;;12.25;;
43835;SDS011;39345;43.964;25.340;2023-10-31T00:07:39;28.50;;;12.63;;
43835;SDS011;39345;43.964;25.340;2023-10-31T00:10:06;27.92;;;11.60;;
43835;SDS011;39345;43.964;25.340;2023-10-31T00:12:35;24.27;;;11.98;;
43835;SDS011;39345;43.964;25.340;2023-10-31T00:15:03;26.98;;;12.50;;
43835;SDS011;39345;43.964;25.340;2023-10-31T00:17:30;27.20;;;12.48;;
43835;SDS011;39345;43.964;25.340;2023-10-31T00:19:58;30.58;;;12.70;;
43835;SDS011;39345;43.964;25.340;2023-10-31T00:22:25;27.30;;;12.63;;
43835;SDS011;39345;43.964;25.340;2023-10-31T00:24:53;30.60;;;13.10;;
43835;SDS011;39345;43.964;25.340;2023-10-31T00:27:20;32.92;;;12.73;;
43835;SDS011;39345;43.964;25.340;2023-10-31T00:29:47;27.67;;;12.02;;
43835;SDS011;39345;43.964;25.340;2023-10-31T00:32:15;29.45;;;12.13;;
43835;SDS011;39345;43.964;25.340;2023-10-31T00:34:42;23.73;;;10.98;;
43835;SDS011;39345;43.964;25.340;2023-10-31T00:37:10;26.17;;;11.35;;
43835;SDS011;39345;43.964;25.340;2023-10-31T00:39:38;32.17;;;11.90;;
43835;SDS011;39345;43.964;25.340;2023-10-31T00:42:05;23.08;;;11.45;;
43835;SDS011;39345;43.964;25.340;2023-10-31T00:44:34;25.55;;;12.07;;
43835;SDS011;39345;43.964;25.340;2023-10-31T00:47:02;27.90;;;12.00;;
43835;SDS011;39345;43.964;25.340;2023-10-31T00:49:31;26.02;;;11.18;;
43835;SDS011;39345;43.964;25.340;2023-10-31T00:51:59;30.25;;;12.25;;
43835;SDS011;39345;43.964;25.340;2023-10-31T00:54:26;30.08;;;12.25;;
43835;SDS011;39345;43.964;25.340;2023-10-31T00:56:54;25.48;;;11.82;;
43835;SDS011;39345;43.964;25.340;2023-10-31T00:59:21;23.90;;;11.70;;
43835;SDS011;39345;43.964;25.340;2023-10-31T01:01:49;27.30;;;11.02;;
43835;SDS011;39345;43.964;25.340;2023-10-31T01:04:16;20.17;;;10.48;;
43835;SDS011;39345;43.964;25.340;2023-10-31T01:06:44;29.25;;;10.93;;
43835;SDS011;39345;43.964;25.340;2023-10-31T01:09:11;23.48;;;10.95;;
43835;SDS011;39345;43.964;25.340;2023-10-31T01:11:39;22.85;;;10.70;;
43835;SDS011;39345;43.964;25.340;2023-10-31T01:14:07;21.92;;;10.88;;
43835;SDS011;39345;43.964;25.340;2023-10-31T01:16:34;23.67;;;10.48;;
43835;SDS011;39345;43.964;25.340;2023-10-31T01:19:02;23.40;;;10.30;;
43835;SDS011;39345;43.964;25.340;2023-10-31T01:21:30;23.25;;;11.52;;
43835;SDS011;39345;43.964;25.340;2023-10-31T01:23:58;30.10;;;11.60;;
43835;SDS011;39345;43.964;25.340;2023-10-31T01:26:25;22.25;;;10.73;;
43835;SDS011;39345;43.964;25.340;2023-10-31T01:28:53;24.67;;;10.63;;
43835;SDS011;39345;43.964;25.340;2023-10-31T01:31:21;26.23;;;11.40;;
43835;SDS011;39345;43.964;25.340;2023-10-31T01:33:48;24.35;;;11.15;;
43835;SDS011;39345;43.964;25.340;2023-10-31T01:36:16;23.23;;;11.65;;
43835;SDS011;39345;43.964;25.340;2023-10-31T01:38:45;23.08;;;10.43;;
43835;SDS011;39345;43.964;25.340;2023-10-31T01:41:13;24.13;;;11.05;;
43835;SDS011;39345;43.964;25.340;2023-10-31T01:43:41;24.15;;;10.35;;
43835;SDS011;39345;43.964;25.340;2023-10-31T01:46:09;26.40;;;10.73;;
43835;SDS011;39345;43.964;25.340;2023-10-31T01:48:37;25.80;;;10.90;;
43835;SDS011;39345;43.964;25.340;2023-10-31T01:51:05;23.38;;;10.73;;
43835;SDS011;39345;43.964;25.340;2023-10-31T01:53:33;25.50;;;10.40;;
43835;SDS011;39345;43.964;25.340;2023-10-31T01:56:01;27.45;;;11.75;;
43835;SDS011;39345;43.964;25.340;2023-10-31T01:58:36;20.40;;;10.73;;
43835;SDS011;39345;43.964;25.340;2023-10-31T02:01:04;26.25;;;11.00;;
43835;SDS011;39345;43.964;25.340;2023-10-31T02:03:33;25.40;;;11.73;;
43835;SDS011;39345;43.964;25.340;2023-10-31T02:06:01;23.00;;;12.05;;
43835;SDS011;39345;43.964;25.340;2023-10-31T02:08:28;26.95;;;11.93;;
43835;SDS011;39345;43.964;25.340;2023-10-31T02:10:56;25.90;;;11.88;;
43835;SDS011;39345;43.964;25.340;2023-10-31T02:13:23;26.63;;;12.57;;
43835;SDS011;39345;43.964;25.340;2023-10-31T02:15:51;27.58;;;11.93;;
43835;SDS011;39345;43.964;25.340;2023-10-31T02:18:18;29.20;;;12.27;;
43835;SDS011;39345;43.964;25.340;2023-10-31T02:20:46;31.08;;;12.05;;
43835;SDS011;39345;43.964;25.340;2023-10-31T02:23:16;27.30;;;11.85;;
43835;SDS011;39345;43.964;25.340;2023-10-31T02:25:44;29.77;;;12.48;;
43835;SDS011;39345;43.964;25.340;2023-10-31T02:28:11;26.30;;;13.23;;
43835;SDS011;39345;43.964;25.340;2023-10-31T02:30:40;29.55;;;13.65;;
43835;SDS011;39345;43.964;25.340;2023-10-31T02:33:07;27.48;;;12.55;;
43835;SDS011;39345;43.964;25.340;2023-10-31T02:35:35;33.30;;;13.00;;
43835;SDS011;39345;43.964;25.340;2023-10-31T02:38:02;35.40;;;13.65;;
43835;SDS011;39345;43.964;25.340;2023-10-31T02:40:30;30.38;;;13.02;;
43835;SDS011;39345;43.964;25.340;2023-10-31T02:42:58;23.75;;;12.15;;
43835;SDS011;39345;43.964;25.340;2023-10-31T02:45:25;24.92;;;11.82;;
43835;SDS011;39345;43.964;25.340;2023-10-31T02:47:53;23.40;;;12.30;;
43835;SDS011;39345;43.964;25.340;2023-10-31T02:50:20;24.17;;;12.57;;
43835;SDS011;39345;43.964;25.340;2023-10-31T02:52:48;24.73;;;12.48;;
43835;SDS011;39345;43.964;25.340;2023-10-31T02:55:15;23.83;;;12.27;;
43835;SDS011;39345;43.964;25.340;2023-10-31T02:57:43;26.95;;;12.85;;
43835;SDS011;39345;43.964;25.340;2023-10-31T03:00:10;24.33;;;12.10;;
43835;SDS011;39345;43.964;25.340;2023-10-31T03:02:38;27.38;;;13.23;;
43835;SDS011;39345;43.964;25.340;2023-10-31T03:05:06;24.67;;;12.95;;
43835;SDS011;39345;43.964;25.340;2023-10-31T03:07:34;26.35;;;12.45;;
43835;SDS011;39345;43.964;25.340;2023-10-31T03:10:01;29.77;;;12.73;;
43835;SDS011;39345;43.964;25.340;2023-10-31T03:12:29;29.27;;;14.25;;
43835;SDS011;39345;43.964;25.340;2023-10-31T03:14:56;25.42;;;13.13;;
43835;SDS011;39345;43.964;25.340;2023-10-31T03:17:24;31.42;;;13.20;;
43835;SDS011;39345;43.964;25.340;2023-10-31T03:19:52;26.65;;;13.70;;
43835;SDS011;39345;43.964;25.340;2023-10-31T03:22:20;31.38;;;14.27;;
43835;SDS011;39345;43.964;25.340;2023-10-31T03:24:48;35.03;;;14.68;;
43835;SDS011;39345;43.964;25.340;2023-10-31T03:27:15;25.95;;;14.68;;
43835;SDS011;39345;43.964;25.340;2023-10-31T03:29:43;27.38;;;13.98;;
43835;SDS011;39345;43.964;25.340;2023-10-31T03:32:11;36.47;;;15.10;;
43835;SDS011;39345;43.964;25.340;2023-10-31T03:34:39;25.95;;;15.65;;
43835;SDS011;39345;43.964;25.340;2023-10-31T03:37:06;28.45;;;14.13;;
43835;SDS011;39345;43.964;25.340;2023-10-31T03:39:35;24.17;;;12.90;;
43835;SDS011;39345;43.964;25.340;2023-10-31T03:42:02;33.42;;;14.43;;
43835;SDS011;39345;43.964;25.340;2023-10-31T03:44:31;30.65;;;14.73;;
43835;SDS011;39345;43.964;25.340;2023-10-31T03:46:59;25.83;;;13.52;;
43835;SDS011;39345;43.964;25.340;2023-10-31T03:49:26;28.27;;;14.07;;
43835;SDS011;39345;43.964;25.340;2023-10-31T03:51:54;32.05;;;14.27;;
43835;SDS011;39345;43.964;25.340;2023-10-31T03:54:21;27.73;;;13.75;;
43835;SDS011;39345;43.964;25.340;2023-10-31T03:56:49;26.13;;;13.60;;
43835;SDS011;39345;43.964;25.340;2023-10-31T03:59:17;26.23;;;13.60;;
43835;SDS011;39345;43.964;25.340;2023-10-31T04:01:44;25.70;;;13.40;;
43835;SDS011;39345;43.964;25.340;2023-10-31T04:04:12;22.80;;;13.80;;
43835;SDS011;39345;43.964;25.340;2023-10-31T04:06:39;27.25;;;14.52;;
43835;SDS011;39345;43.964;25.340;2023-10-31T04:09:09;28.48;;;14.63;;
43835;SDS011;39345;43.964;25.340;2023-10-31T04:11:37;30.23;;;15.30;;
43835;SDS011;39345;43.964;25.340;2023-10-31T04:14:05;27.50;;;14.70;;
43835;SDS011;39345;43.964;25.340;2023-10-31T04:16:39;26.60;;;14.93;;
43835;SDS011;39345;43.964;25.340;2023-10-31T04:19:12;36.35;;;17.25;;
43835;SDS011;39345;43.964;25.340;2023-10-31T04:21:40;35.25;;;17.65;;
43835;SDS011;39345;43.964;25.340;2023-10-31T04:24:07;43.28;;;18.52;;
43835;SDS011;39345;43.964;25.340;2023-10-31T04:26:35;38.25;;;18.80;;
43835;SDS011;39345;43.964;25.340;2023-10-31T04:29:02;46.55;;;20.20;;
43835;SDS011;39345;43.964;25.340;2023-10-31T04:31:30;45.35;;;21.05;;
43835;SDS011;39345;43.964;25.340;2023-10-31T04:34:09;55.10;;;23.83;;
43835;SDS011;39345;43.964;25.340;2023-10-31T04:36:37;55.17;;;25.90;;
43835;SDS011;39345;43.964;25.340;2023-10-31T04:39:04;53.13;;;24.35;;
43835;SDS011;39345;43.964;25.340;2023-10-31T04:41:32;53.60;;;23.60;;
43835;SDS011;39345;43.964;25.340;2023-10-31T04:43:59;48.80;;;22.90;;
43835;SDS011;39345;43.964;25.340;2023-10-31T04:46:27;51.60;;;23.80;;
43835;SDS011;39345;43.964;25.340;2023-10-31T04:48:54;45.67;;;21.38;;
43835;SDS011;39345;43.964;25.340;2023-10-31T04:51:22;45.90;;;22.35;;
43835;SDS011;39345;43.964;25.340;2023-10-31T04:53:49;40.45;;;21.80;;
43835;SDS011;39345;43.964;25.340;2023-10-31T04:56:17;38.45;;;18.38;;
43835;SDS011;39345;43.964;25.340;2023-10-31T04:58:45;42.33;;;18.90;;
43835;SDS011;39345;43.964;25.340;2023-10-31T05:01:13;43.58;;;18.40;;
43835;SDS011;39345;43.964;25.340;2023-10-31T05:03:40;37.97;;;19.02;;
43835;SDS011;39345;43.964;25.340;2023-10-31T05:06:08;38.38;;;18.45;;
43835;SDS011;39345;43.964;25.340;2023-10-31T05:08:36;38.72;;;19.42;;
43835;SDS011;39345;43.964;25.340;2023-10-31T05:11:03;48.67;;;19.55;;
43835;SDS011;39345;43.964;25.340;2023-10-31T05:13:31;44.67;;;20.98;;
43835;SDS011;39345;43.964;25.340;2023-10-31T05:15:58;43.35;;;19.30;;
43835;SDS011;39345;43.964;25.340;2023-10-31T05:18:26;40.03;;;19.38;;
43835;SDS011;39345;43.964;25.340;2023-10-31T05:20:53;34.70;;;19.30;;
43835;SDS011;39345;43.964;25.340;2023-10-31T05:23:21;41.60;;;21.30;;
43835;SDS011;39345;43.964;25.340;2023-10-31T05:25:48;41.22;;;20.98;;
43835;SDS011;39345;43.964;25.340;2023-10-31T05:28:16;32.53;;;19.55;;
43835;SDS011;39345;43.964;25.340;2023-10-31T05:30:43;42.80;;;20.65;;
43835;SDS011;39345;43.964;25.340;2023-10-31T05:33:11;38.90;;;19.38;;
43835;SDS011;39345;43.964;25.340;2023-10-31T05:35:39;41.35;;;20.42;;
43835;SDS011;39345;43.964;25.340;2023-10-31T05:38:06;47.25;;;20.08;;
43835;SDS011;39345;43.964;25.340;2023-10-31T05:40:34;46.53;;;20.70;;
43835;SDS011;39345;43.964;25.340;2023-10-31T05:43:02;41.67;;;20.33;;
43835;SDS011;39345;43.964;25.340;2023-10-31T05:45:30;41.10;;;20.08;;
43835;SDS011;39345;43.964;25.340;2023-10-31T05:47:57;43.00;;;19.33;;
43835;SDS011;39345;43.964;25.340;2023-10-31T05:50:25;38.33;;;18.60;;
43835;SDS011;39345;43.964;25.340;2023-10-31T05:52:52;37.75;;;19.40;;
43835;SDS011;39345;43.964;25.340;2023-10-31T05:55:20;36.72;;;17.70;;
43835;SDS011;39345;43.964;25.340;2023-10-31T05:57:47;31.85;;;17.15;;
43835;SDS011;39345;43.964;25.340;2023-10-31T06:00:15;32.80;;;17.80;;
43835;SDS011;39345;43.964;25.340;2023-10-31T06:02:43;36.13;;;18.98;;
43835;SDS011;39345;43.964;25.340;2023-10-31T06:05:10;33.67;;;16.73;;
43835;SDS011;39345;43.964;25.340;2023-10-31T06:07:38;29.45;;;16.30;;
43835;SDS011;39345;43.964;25.340;2023-10-31T06:10:06;38.05;;;17.92;;
43835;SDS011;39345;43.964;25.340;2023-10-31T06:12:33;34.25;;;17.38;;
43835;SDS011;39345;43.964;25.340;2023-10-31T06:15:01;31.92;;;18.30;;
43835;SDS011;39345;43.964;25.340;2023-10-31T06:17:29;32.05;;;16.70;;
43835;SDS011;39345;43.964;25.340;2023-10-31T06:20:00;34.58;;;18.02;;
43835;SDS011;39345;43.964;25.340;2023-10-31T06:22:28;34.20;;;17.15;;
43835;SDS011;39345;43.964;25.340;2023-10-31T06:24:55;32.13;;;17.23;;
43835;SDS011;39345;43.964;25.340;2023-10-31T06:27:24;38.72;;;17.73;;
43835;SDS011;39345;43.964;25.340;2023-10-31T06:29:52;32.50;;;16.73;;
43835;SDS011;39345;43.964;25.340;2023-10-31T06:32:41;39.97;;;18.38;;
43835;SDS011;39345;43.964;25.340;2023-10-31T06:35:09;39.72;;;19.35;;
43835;SDS011;39345;43.964;25.340;2023-10-31T06:37:36;36.13;;;19.23;;
43835;SDS011;39345;43.964;25.340;2023-10-31T06:40:04;35.20;;;18.00;;
43835;SDS011;39345;43.964;25.340;2023-10-31T06:42:32;39.72;;;18.60;;
43835;SDS011;39345;43.964;25.340;2023-10-31T06:44:59;37.67;;;18.55;;
43835;SDS011;39345;43.964;25.340;2023-10-31T06:47:27;41.50;;;19.15;;
43835;SDS011;39345;43.964;25.340;2023-10-31T06:49:54;31.27;;;17.40;;
43835;SDS011;39345;43.964;25.340;2023-10-31T06:52:22;30.67;;;17.65;;
43835;SDS011;39345;43.964;25.340;2023-10-31T06:54:49;32.95;;;18.25;;
43835;SDS011;39345;43.964;25.340;2023-10-31T06:57:17;37.05;;;17.77;;
43835;SDS011;39345;43.964;25.340;2023-10-31T06:59:44;37.97;;;16.67;;
43835;SDS011;39345;43.964;25.340;2023-10-31T07:02:15;33.10;;;15.68;;
43835;SDS011;39345;43.964;25.340;2023-10-31T07:04:43;25.70;;;14.23;;
43835;SDS011;39345;43.964;25.340;2023-10-31T07:07:10;26.77;;;14.68;;
43835;SDS011;39345;43.964;25.340;2023-10-31T07:09:38;34.83;;;14.32;;
43835;SDS011;39345;43.964;25.340;2023-10-31T07:12:05;29.10;;;14.23;;
43835;SDS011;39345;43.964;25.340;2023-10-31T07:14:33;26.13;;;13.73;;
43835;SDS011;39345;43.964;25.340;2023-10-31T07:17:00;24.42;;;12.88;;
43835;SDS011;39345;43.964;25.340;2023-10-31T07:19:28;24.95;;;11.85;;
43835;SDS011;39345;43.964;25.340;2023-10-31T07:21:56;20.63;;;11.75;;
43835;SDS011;39345;43.964;25.340;2023-10-31T07:24:23;21.23;;;12.32;;
43835;SDS011;39345;43.964;25.340;2023-10-31T07:26:53;20.83;;;10.75;;
43835;SDS011;39345;43.964;25.340;2023-10-31T07:29:21;33.95;;;11.75;;
43835;SDS011;39345;43.964;25.340;2023-10-31T07:31:48;24.17;;;10.77;;
43835;SDS011;39345;43.964;25.340;2023-10-31T07:34:16;21.13;;;10.68;;
43835;SDS011;39345;43.964;25.340;2023-10-31T07:36:43;27.27;;;10.73;;
43835;SDS011;39345;43.964;25.340;2023-10-31T07:39:11;17.33;;;10.68;;
43835;SDS011;39345;43.964;25.340;2023-10-31T07:41:39;19.02;;;10.25;;
43835;SDS011;39345;43.964;25.340;2023-10-31T07:44:09;17.35;;;10.00;;
43835;SDS011;39345;43.964;25.340;2023-10-31T07:46:36;24.08;;;10.88;;
43835;SDS011;39345;43.964;25.340;2023-10-31T07:49:04;22.85;;;10.43;;
43835;SDS011;39345;43.964;25.340;2023-10-31T07:51:31;26.08;;;10.48;;
43835;SDS011;39345;43.964;25.340;2023-10-31T07:53:59;28.38;;;11.07;;
43835;SDS011;39345;43.964;25.340;2023-10-31T07:56:26;38.83;;;12.82;;
43835;SDS011;39345;43.964;25.340;2023-10-31T07:58:54;33.33;;;13.18;;
43835;SDS011;39345;43.964;25.340;2023-10-31T08:01:22;25.50;;;10.55;;
43835;SDS011;39345;43.964;25.340;2023-10-31T08:03:50;26.38;;;11.40;;
43835;SDS011;39345;43.964;25.340;2023-10-31T08:06:17;27.40;;;12.10;;
43835;SDS011;39345;43.964;25.340;2023-10-31T08:08:45;29.17;;;10.07;;
43835;SDS011;39345;43.964;25.340;2023-10-31T08:11:12;24.58;;;9.82;;
43835;SDS011;39345;43.964;25.340;2023-10-31T08:13:40;27.05;;;9.30;;
43835;SDS011;39345;43.964;25.340;2023-10-31T08:16:07;21.13;;;6.53;;
43835;SDS011;39345;43.964;25.340;2023-10-31T08:18:35;23.23;;;8.07;;
43835;SDS011;39345;43.964;25.340;2023-10-31T08:21:03;17.90;;;7.20;;
43835;SDS011;39345;43.964;25.340;2023-10-31T08:23:31;24.77;;;7.43;;
43835;SDS011;39345;43.964;25.340;2023-10-31T08:25:58;15.43;;;6.80;;
43835;SDS011;39345;43.964;25.340;2023-10-31T08:28:26;16.33;;;6.20;;
43835;SDS011;39345;43.964;25.340;2023-10-31T08:30:55;21.38;;;7.88;;
43835;SDS011;39345;43.964;25.340;2023-10-31T08:33:22;17.88;;;7.07;;
43835;SDS011;39345;43.964;25.340;2023-10-31T08:35:50;16.13;;;6.20;;
43835;SDS011;39345;43.964;25.340;2023-10-31T08:38:17;15.10;;;7.20;;
43835;SDS011;39345;43.964;25.340;2023-10-31T08:40:56;20.75;;;6.63;;
43835;SDS011;39345;43.964;25.340;2023-10-31T08:43:24;21.45;;;6.95;;
43835;SDS011;39345;43.964;25.340;2023-10-31T08:45:51;19.45;;;6.95;;
43835;SDS011;39345;43.964;25.340;2023-10-31T08:48:19;16.27;;;6.40;;
43835;SDS011;39345;43.964;25.340;2023-10-31T08:50:46;19.58;;;7.07;;
43835;SDS011;39345;43.964;25.340;2023-10-31T08:53:14;19.52;;;7.90;;
43835;SDS011;39345;43.964;25.340;2023-10-31T08:55:42;13.32;;;6.90;;
43835;SDS011;39345;43.964;25.340;2023-10-31T08:58:11;17.98;;;6.65;;
43835;SDS011;39345;43.964;25.340;2023-10-31T09:00:39;18.63;;;7.20;;
43835;SDS011;39345;43.964;25.340;2023-10-31T09:03:07;15.35;;;6.22;;
43835;SDS011;39345;43.964;25.340;2023-10-31T09:05:35;13.98;;;6.68;;
43835;SDS011;39345;43.964;25.340;2023-10-31T09:08:03;20.48;;;7.32;;
43835;SDS011;39345;43.964;25.340;2023-10-31T09:10:32;17.92;;;8.23;;
43835;SDS011;39345;43.964;25.340;2023-10-31T09:12:59;13.18;;;6.28;;
43835;SDS011;39345;43.964;25.340;2023-10-31T09:15:27;16.40;;;7.03;;
43835;SDS011;39345;43.964;25.340;2023-10-31T09:17:54;20.90;;;7.40;;
43835;SDS011;39345;43.964;25.340;2023-10-31T09:20:22;21.23;;;7.65;;
43835;SDS011;39345;43.964;25.340;2023-10-31T09:22:49;21.92;;;8.05;;
43835;SDS011;39345;43.964;25.340;2023-10-31T09:25:17;18.15;;;8.73;;
43835;SDS011;39345;43.964;25.340;2023-10-31T09:27:44;18.30;;;9.02;;
43835;SDS011;39345;43.964;25.340;2023-10-31T09:30:12;19.42;;;9.27;;
43835;SDS011;39345;43.964;25.340;2023-10-31T09:32:39;14.63;;;7.07;;
43835;SDS011;39345;43.964;25.340;2023-10-31T09:35:07;18.98;;;7.45;;
43835;SDS011;39345;43.964;25.340;2023-10-31T09:37:35;18.58;;;8.63;;
43835;SDS011;39345;43.964;25.340;2023-10-31T09:40:02;19.58;;;7.80;;
43835;SDS011;39345;43.964;25.340;2023-10-31T09:42:30;18.83;;;8.65;;
43835;SDS011;39345;43.964;25.340;2023-10-31T09:44:58;18.55;;;7.95;;
43835;SDS011;39345;43.964;25.340;2023-10-31T09:47:26;20.52;;;11.13;;
43835;SDS011;39345;43.964;25.340;2023-10-31T09:49:53;17.92;;;10.48;;
43835;SDS011;39345;43.964;25.340;2023-10-31T09:52:21;19.02;;;8.70;;
43835;SDS011;39345;43.964;25.340;2023-10-31T09:54:49;14.68;;;6.72;;
43835;SDS011;39345;43.964;25.340;2023-10-31T09:57:19;15.02;;;7.22;;
43835;SDS011;39345;43.964;25.340;2023-10-31T09:59:46;16.85;;;6.70;;
43835;SDS011;39345;43.964;25.340;2023-10-31T10:02:14;20.13;;;11.40;;
43835;SDS011;39345;43.964;25.340;2023-10-31T10:04:42;16.35;;;9.55;;
43835;SDS011;39345;43.964;25.340;2023-10-31T10:07:13;17.58;;;6.45;;
43835;SDS011;39345;43.964;25.340;2023-10-31T10:09:40;13.45;;;5.45;;
43835;SDS011;39345;43.964;25.340;2023-10-31T10:12:11;14.25;;;5.60;;
43835;SDS011;39345;43.964;25.340;2023-10-31T10:14:39;12.52;;;5.53;;
43835;SDS011;39345;43.964;25.340;2023-10-31T10:17:17;16.27;;;6.03;;
43835;SDS011;39345;43.964;25.340;2023-10-31T10:19:44;15.68;;;5.97;;
43835;SDS011;39345;43.964;25.340;2023-10-31T10:22:14;18.40;;;6.30;;
43835;SDS011;39345;43.964;25.340;2023-10-31T10:24:42;13.38;;;5.75;;
43835;SDS011;39345;43.964;25.340;2023-10-31T10:27:09;13.90;;;5.90;;
43835;SDS011;39345;43.964;25.340;2023-10-31T10:29:37;14.27;;;5.85;;
43835;SDS011;39345;43.964;25.340;2023-10-31T10:32:05;17.45;;;5.57;;
43835;SDS011;39345;43.964;25.340;2023-10-31T10:34:35;12.60;;;5.75;;
43835;SDS011;39345;43.964;25.340;2023-10-31T10:37:04;16.55;;;5.47;;
43835;SDS011;39345;43.964;25.340;2023-10-31T10:39:33;13.75;;;5.30;;
43835;SDS011;39345;43.964;25.340;2023-10-31T10:42:03;18.88;;;6.53;;
43835;SDS011;39345;43.964;25.340;2023-10-31T10:44:35;18.55;;;5.55;;
43835;SDS011;39345;43.964;25.340;2023-10-31T10:47:04;9.90;;;4.35;;
43835;SDS011;39345;43.964;25.340;2023-10-31T10:49:36;13.38;;;5.22;;
43835;SDS011;39345;43.964;25.340;2023-10-31T10:54:52;13.65;;;5.55;;
43835;SDS011;39345;43.964;25.340;2023-10-31T10:57:37;10.50;;;5.28;;
43835;SDS011;39345;43.964;25.340;2023-10-31T11:00:09;13.88;;;7.85;;
43835;SDS011;39345;43.964;25.340;2023-10-31T11:02:40;11.20;;;4.28;;
43835;SDS011;39345;43.964;25.340;2023-10-31T11:05:12;9.30;;;3.85;;
43835;SDS011;39345;43.964;25.340;2023-10-31T11:07:41;11.68;;;5.65;;
43835;SDS011;39345;43.964;25.340;2023-10-31T11:10:09;10.57;;;4.63;;
43835;SDS011;39345;43.964;25.340;2023-10-31T11:12:37;9.20;;;3.80;;
43835;SDS011;39345;43.964;25.340;2023-10-31T11:15:05;10.88;;;4.63;;
43835;SDS011;39345;43.964;25.340;2023-10-31T11:17:34;9.60;;;4.18;;
43835;SDS011;39345;43.964;25.340;2023-10-31T11:20:02;8.52;;;3.30;;
43835;SDS011;39345;43.964;25.340;2023-10-31T11:22:39;11.55;;;3.50;;
43835;SDS011;39345;43.964;25.340;2023-10-31T11:25:08;9.82;;;3.80;;
43835;SDS011;39345;43.964;25.340;2023-10-31T11:27:49;8.50;;;4.30;;
43835;SDS011;39345;43.964;25.340;2023-10-31T11:30:29;8.20;;;3.28;;
43835;SDS011;39345;43.964;25.340;2023-10-31T11:32:57;11.82;;;4.63;;
43835;SDS011;39345;43.964;25.340;2023-10-31T11:35:25;8.02;;;3.92;;
43835;SDS011;39345;43.964;25.340;2023-10-31T11:38:03;10.45;;;4.20;;
43835;SDS011;39345;43.964;25.340;2023-10-31T11:40:33;10.05;;;3.83;;
43835;SDS011;39345;43.964;25.340;2023-10-31T11:43:05;12.57;;;5.60;;
43835;SDS011;39345;43.964;25.340;2023-10-31T11:45:51;12.85;;;4.50;;
43835;SDS011;39345;43.964;25.340;2023-10-31T11:48:44;13.77;;;4.90;;
43835;SDS011;39345;43.964;25.340;2023-10-31T11:51:09;7.40;;;3.42;;
43835;SDS011;39345;43.964;25.340;2023-10-31T11:53:38;7.75;;;3.90;;
43835;SDS011;39345;43.964;25.340;2023-10-31T11:56:06;8.82;;;3.80;;
43835;SDS011;39345;43.964;25.340;2023-10-31T11:58:33;9.52;;;3.75;;
43835;SDS011;39345;43.964;25.340;2023-10-31T12:01:02;11.13;;;3.75;;
43835;SDS011;39345;43.964;25.340;2023-10-31T12:03:43;8.10;;;3.50;;
43835;SDS011;39345;43.964;25.340;2023-10-31T12:06:19;5.78;;;3.10;;
43835;SDS011;39345;43.964;25.340;2023-10-31T12:08:48;8.20;;;3.42;;
43835;SDS011;39345;43.964;25.340;2023-10-31T12:11:19;9.70;;;3.38;;
43835;SDS011;39345;43.964;25.340;2023-10-31T12:16:25;8.75;;;3.80;;
43835;SDS011;39345;43.964;25.340;2023-10-31T12:19:03;9.80;;;4.55;;
43835;SDS011;39345;43.964;25.340;2023-10-31T12:21:44;8.43;;;3.85;;
43835;SDS011;39345;43.964;25.340;2023-10-31T12:24:17;9.27;;;4.88;;
43835;SDS011;39345;43.964;25.340;2023-10-31T12:26:45;11.73;;;4.35;;
43835;SDS011;39345;43.964;25.340;2023-10-31T12:29:14;9.85;;;3.97;;
43835;SDS011;39345;43.964;25.340;2023-10-31T12:31:42;6.95;;;3.40;;
43835;SDS011;39345;43.964;25.340;2023-10-31T12:34:12;7.07;;;3.13;;
43835;SDS011;39345;43.964;25.340;2023-10-31T12:36:40;6.88;;;3.33;;
43835;SDS011;39345;43.964;25.340;2023-10-31T12:39:09;5.57;;;3.10;;
43835;SDS011;39345;43.964;25.340;2023-10-31T12:41:38;7.78;;;3.20;;
43835;SDS011;39345;43.964;25.340;2023-10-31T12:44:06;9.52;;;4.22;;
43835;SDS011;39345;43.964;25.340;2023-10-31T12:46:40;9.85;;;4.00;;
43835;SDS011;39345;43.964;25.340;2023-10-31T12:49:12;13.73;;;4.18;;
43835;SDS011;39345;43.964;25.340;2023-10-31T12:51:54;10.48;;;5.43;;
43835;SDS011;39345;43.964;25.340;2023-10-31T12:54:28;11.60;;;5.63;;
43835;SDS011;39345;43.964;25.340;2023-10-31T12:57:00;5.97;;;2.72;;
43835;SDS011;39345;43.964;25.340;2023-10-31T12:59:28;8.65;;;3.40;;
43835;SDS011;39345;43.964;25.340;2023-10-31T13:01:55;10.25;;;4.10;;
43835;SDS011;39345;43.964;25.340;2023-10-31T13:04:27;6.65;;;3.45;;
43835;SDS011;39345;43.964;25.340;2023-10-31T13:06:59;10.32;;;4.00;;
43835;SDS011;39345;43.964;25.340;2023-10-31T13:09:33;10.63;;;3.83;;
43835;SDS011;39345;43.964;25.340;2023-10-31T13:12:05;8.65;;;3.55;;
43835;SDS011;39345;43.964;25.340;2023-10-31T13:14:32;11.93;;;3.90;;
43835;SDS011;39345;43.964;25.340;2023-10-31T13:17:01;10.45;;;3.67;;
43835;SDS011;39345;43.964;25.340;2023-10-31T13:19:30;20.05;;;7.82;;
43835;SDS011;39345;43.964;25.340;2023-10-31T13:21:57;15.60;;;6.60;;
43835;SDS011;39345;43.964;25.340;2023-10-31T13:24:25;23.05;;;11.55;;
43835;SDS011;39345;43.964;25.340;2023-10-31T13:26:52;16.30;;;9.25;;
43835;SDS011;39345;43.964;25.340;2023-10-31T13:29:20;13.00;;;6.15;;
43835;SDS011;39345;43.964;25.340;2023-10-31T13:31:48;10.85;;;4.97;;
43835;SDS011;39345;43.964;25.340;2023-10-31T13:34:16;15.73;;;5.25;;
43835;SDS011;39345;43.964;25.340;2023-10-31T13:36:43;11.15;;;4.68;;
43835;SDS011;39345;43.964;25.340;2023-10-31T13:39:11;12.73;;;4.13;;
43835;SDS011;39345;43.964;25.340;2023-10-31T13:41:38;11.50;;;3.88;;
43835;SDS011;39345;43.964;25.340;2023-10-31T13:44:06;18.13;;;4.93;;
43835;SDS011;39345;43.964;25.340;2023-10-31T13:46:34;21.08;;;5.35;;
43835;SDS011;39345;43.964;25.340;2023-10-31T13:49:01;18.67;;;5.18;;
43835;SDS011;39345;43.964;25.340;2023-10-31T13:51:30;19.60;;;4.60;;
43835;SDS011;39345;43.964;25.340;2023-10-31T13:53:57;16.55;;;5.57;;
43835;SDS011;39345;43.964;25.340;2023-10-31T13:56:25;15.50;;;6.43;;
43835;SDS011;39345;43.964;25.340;2023-10-31T13:58:52;20.90;;;7.72;;
43835;SDS011;39345;43.964;25.340;2023-10-31T14:04:59;8.25;;;3.90;;
43835;SDS011;39345;43.964;25.340;2023-10-31T14:07:27;9.60;;;3.63;;
43835;SDS011;39345;43.964;25.340;2023-10-31T14:09:55;15.05;;;4.70;;
43835;SDS011;39345;43.964;25.340;2023-10-31T14:12:23;17.08;;;5.30;;
43835;SDS011;39345;43.964;25.340;2023-10-31T14:14:51;19.50;;;5.13;;
43835;SDS011;39345;43.964;25.340;2023-10-31T14:17:19;22.13;;;5.95;;
43835;SDS011;39345;43.964;25.340;2023-10-31T14:19:51;18.13;;;6.97;;
43835;SDS011;39345;43.964;25.340;2023-10-31T14:22:19;18.05;;;6.50;;
43835;SDS011;39345;43.964;25.340;2023-10-31T14:24:46;19.45;;;6.40;;
43835;SDS011;39345;43.964;25.340;2023-10-31T14:27:14;23.77;;;7.38;;
43835;SDS011;39345;43.964;25.340;2023-10-31T14:33:41;19.67;;;7.20;;
43835;SDS011;39345;43.964;25.340;2023-10-31T14:36:09;25.40;;;8.00;;